sensor_id;sensor_type;location;lat;lon;timestamp;P1;durP1;ratioP1;P2;durP2;ratioP2
11496;SDS011;5805;51.542;7.230;2024-01-11T00:00:16;19.40;;;11.37;;
11496;SDS011;5805;51.542;7.230;2024-01-11T00:02:42;19.87;;;10.90;;
11496;SDS011;5805;51.542;7.230;2024-01-11T00:05:08;20.53;;;11.00;;
11496;SDS011;5805;51.542;7.230;2024-01-11T00:07:34;19.93;;;10.53;;
11496;SDS011;5805;51.542;7.230;2024-01-11T00:10:01;22.17;;;11.43;;
11496;SDS011;5805;51.542;7.230;2024-01-11T00:12:28;19.77;;;11.47;;
11496;SDS011;5805;51.542;7.230;2024-01-11T00:14:53;18.07;;;10.90;;
11496;SDS011;5805;51.542;7.230;2024-01-11T00:17:21;16.90;;;10.53;;
11496;SDS011;5805;51.542;7.230;2024-01-11T00:19:46;19.17;;;11.03;;
11496;SDS011;5805;51.542;7.230;2024-01-11T00:22:12;21.60;;;11.97;;
11496;SDS011;5805;51.542;7.230;2024-01-11T00:24:38;18.17;;;10.90;;
11496;SDS011;5805;51.542;7.230;2024-01-11T00:27:03;21.53;;;11.70;;
11496;SDS011;5805;51.542;7.230;2024-01-11T00:29:30;22.77;;;11.57;;
11496;SDS011;5805;51.542;7.230;2024-01-11T00:31:55;20.63;;;11.10;;
11496;SDS011;5805;51.542;7.230;2024-01-11T00:34:23;22.07;;;10.80;;
11496;SDS011;5805;51.542;7.230;2024-01-11T00:36:48;17.90;;;10.23;;
11496;SDS011;5805;51.542;7.230;2024-01-11T00:39:14;19.77;;;10.87;;
11496;SDS011;5805;51.542;7.230;2024-01-11T00:41:41;20.87;;;11.73;;
11496;SDS011;5805;51.542;7.230;2024-01-11T00:44:07;27.67;;;11.27;;
11496;SDS011;5805;51.542;7.230;2024-01-11T00:46:32;19.70;;;10.70;;
11496;SDS011;5805;51.542;7.230;2024-01-11T00:48:59;22.33;;;11.87;;
11496;SDS011;5805;51.542;7.230;2024-01-11T00:51:26;22.53;;;11.20;;
11496;SDS011;5805;51.542;7.230;2024-01-11T00:53:51;16.70;;;9.53;;
11496;SDS011;5805;51.542;7.230;2024-01-11T00:56:17;20.87;;;11.10;;
11496;SDS011;5805;51.542;7.230;2024-01-11T00:58:43;21.47;;;11.07;;
11496;SDS011;5805;51.542;7.230;2024-01-11T01:01:09;18.93;;;10.47;;
11496;SDS011;5805;51.542;7.230;2024-01-11T01:03:35;20.53;;;10.97;;
11496;SDS011;5805;51.542;7.230;2024-01-11T01:06:01;20.63;;;11.20;;
11496;SDS011;5805;51.542;7.230;2024-01-11T01:08:28;16.73;;;9.70;;
11496;SDS011;5805;51.542;7.230;2024-01-11T01:10:54;19.27;;;10.97;;
11496;SDS011;5805;51.542;7.230;2024-01-11T01:13:20;19.30;;;10.63;;
11496;SDS011;5805;51.542;7.230;2024-01-11T01:15:46;16.53;;;10.70;;
11496;SDS011;5805;51.542;7.230;2024-01-11T01:18:11;18.90;;;10.40;;
11496;SDS011;5805;51.542;7.230;2024-01-11T01:20:37;20.23;;;10.57;;
11496;SDS011;5805;51.542;7.230;2024-01-11T01:23:03;19.10;;;10.10;;
11496;SDS011;5805;51.542;7.230;2024-01-11T01:25:30;18.23;;;11.13;;
11496;SDS011;5805;51.542;7.230;2024-01-11T01:27:56;19.17;;;10.40;;
11496;SDS011;5805;51.542;7.230;2024-01-11T01:30:22;17.27;;;9.53;;
11496;SDS011;5805;51.542;7.230;2024-01-11T01:32:47;17.50;;;10.77;;
11496;SDS011;5805;51.542;7.230;2024-01-11T01:35:14;17.33;;;10.63;;
11496;SDS011;5805;51.542;7.230;2024-01-11T01:37:42;19.50;;;11.07;;
11496;SDS011;5805;51.542;7.230;2024-01-11T01:40:08;17.27;;;10.40;;
11496;SDS011;5805;51.542;7.230;2024-01-11T01:42:36;19.60;;;10.73;;
11496;SDS011;5805;51.542;7.230;2024-01-11T01:45:07;19.90;;;11.17;;
11496;SDS011;5805;51.542;7.230;2024-01-11T01:47:33;21.40;;;11.00;;
11496;SDS011;5805;51.542;7.230;2024-01-11T01:49:59;20.40;;;11.67;;
11496;SDS011;5805;51.542;7.230;2024-01-11T01:52:25;19.13;;;10.43;;
11496;SDS011;5805;51.542;7.230;2024-01-11T01:54:51;19.37;;;11.17;;
11496;SDS011;5805;51.542;7.230;2024-01-11T01:57:18;19.77;;;10.70;;
11496;SDS011;5805;51.542;7.230;2024-01-11T01:59:46;22.23;;;12.13;;
11496;SDS011;5805;51.542;7.230;2024-01-11T02:02:16;19.33;;;10.70;;
11496;SDS011;5805;51.542;7.230;2024-01-11T02:04:42;23.07;;;11.13;;
11496;SDS011;5805;51.542;7.230;2024-01-11T02:07:07;17.13;;;10.27;;
11496;SDS011;5805;51.542;7.230;2024-01-11T02:09:34;24.13;;;10.47;;
11496;SDS011;5805;51.542;7.230;2024-01-11T02:12:01;16.20;;;9.83;;
11496;SDS011;5805;51.542;7.230;2024-01-11T02:14:29;18.03;;;10.47;;
11496;SDS011;5805;51.542;7.230;2024-01-11T02:16:57;18.37;;;10.07;;
11496;SDS011;5805;51.542;7.230;2024-01-11T02:19:22;19.67;;;10.70;;
11496;SDS011;5805;51.542;7.230;2024-01-11T02:21:49;19.13;;;10.83;;
11496;SDS011;5805;51.542;7.230;2024-01-11T02:24:20;21.30;;;9.90;;
11496;SDS011;5805;51.542;7.230;2024-01-11T02:26:58;17.13;;;10.57;;
11496;SDS011;5805;51.542;7.230;2024-01-11T02:29:25;18.67;;;10.20;;
11496;SDS011;5805;51.542;7.230;2024-01-11T02:31:50;18.07;;;10.43;;
11496;SDS011;5805;51.542;7.230;2024-01-11T02:34:16;18.70;;;10.50;;
11496;SDS011;5805;51.542;7.230;2024-01-11T02:36:43;21.63;;;10.30;;
11496;SDS011;5805;51.542;7.230;2024-01-11T02:39:09;19.47;;;10.30;;
11496;SDS011;5805;51.542;7.230;2024-01-11T02:41:36;22.03;;;11.17;;
11496;SDS011;5805;51.542;7.230;2024-01-11T02:44:02;18.63;;;10.20;;
11496;SDS011;5805;51.542;7.230;2024-01-11T02:46:29;17.60;;;10.07;;
11496;SDS011;5805;51.542;7.230;2024-01-11T02:48:55;19.17;;;11.03;;
11496;SDS011;5805;51.542;7.230;2024-01-11T02:51:21;18.03;;;10.40;;
11496;SDS011;5805;51.542;7.230;2024-01-11T02:53:47;21.60;;;11.17;;
11496;SDS011;5805;51.542;7.230;2024-01-11T02:56:12;18.27;;;11.30;;
11496;SDS011;5805;51.542;7.230;2024-01-11T02:58:40;18.27;;;10.43;;
11496;SDS011;5805;51.542;7.230;2024-01-11T03:01:05;19.83;;;10.73;;
11496;SDS011;5805;51.542;7.230;2024-01-11T03:03:31;18.73;;;10.43;;
11496;SDS011;5805;51.542;7.230;2024-01-11T03:05:57;20.57;;;11.07;;
11496;SDS011;5805;51.542;7.230;2024-01-11T03:08:22;18.47;;;9.87;;
11496;SDS011;5805;51.542;7.230;2024-01-11T03:10:48;21.20;;;11.17;;
11496;SDS011;5805;51.542;7.230;2024-01-11T03:13:14;18.07;;;10.03;;
11496;SDS011;5805;51.542;7.230;2024-01-11T03:15:41;17.73;;;10.63;;
11496;SDS011;5805;51.542;7.230;2024-01-11T03:18:07;17.40;;;10.67;;
11496;SDS011;5805;51.542;7.230;2024-01-11T03:20:33;18.33;;;10.50;;
11496;SDS011;5805;51.542;7.230;2024-01-11T03:22:58;19.93;;;10.47;;
11496;SDS011;5805;51.542;7.230;2024-01-11T03:25:24;21.40;;;11.23;;
11496;SDS011;5805;51.542;7.230;2024-01-11T03:27:50;18.60;;;10.17;;
11496;SDS011;5805;51.542;7.230;2024-01-11T03:30:16;19.13;;;10.20;;
11496;SDS011;5805;51.542;7.230;2024-01-11T03:32:43;23.50;;;11.00;;
11496;SDS011;5805;51.542;7.230;2024-01-11T03:35:09;20.40;;;11.77;;
11496;SDS011;5805;51.542;7.230;2024-01-11T03:37:35;21.43;;;11.70;;
11496;SDS011;5805;51.542;7.230;2024-01-11T03:40:00;23.47;;;11.13;;
11496;SDS011;5805;51.542;7.230;2024-01-11T03:42:27;22.47;;;11.60;;
11496;SDS011;5805;51.542;7.230;2024-01-11T03:44:53;22.00;;;11.23;;
11496;SDS011;5805;51.542;7.230;2024-01-11T03:47:19;19.17;;;11.40;;
11496;SDS011;5805;51.542;7.230;2024-01-11T03:49:47;21.20;;;10.77;;
11496;SDS011;5805;51.542;7.230;2024-01-11T03:52:13;18.73;;;11.27;;
11496;SDS011;5805;51.542;7.230;2024-01-11T03:54:39;23.33;;;11.43;;
11496;SDS011;5805;51.542;7.230;2024-01-11T03:57:04;22.97;;;10.33;;
11496;SDS011;5805;51.542;7.230;2024-01-11T03:59:30;20.13;;;11.23;;
11496;SDS011;5805;51.542;7.230;2024-01-11T04:01:57;20.27;;;10.87;;
11496;SDS011;5805;51.542;7.230;2024-01-11T04:04:22;17.50;;;10.30;;
11496;SDS011;5805;51.542;7.230;2024-01-11T04:06:50;21.77;;;11.63;;
11496;SDS011;5805;51.542;7.230;2024-01-11T04:09:16;18.17;;;10.67;;
11496;SDS011;5805;51.542;7.230;2024-01-11T04:11:42;19.50;;;10.97;;
11496;SDS011;5805;51.542;7.230;2024-01-11T04:14:08;17.53;;;10.03;;
11496;SDS011;5805;51.542;7.230;2024-01-11T04:16:34;18.53;;;9.97;;
11496;SDS011;5805;51.542;7.230;2024-01-11T04:19:05;19.03;;;10.33;;
11496;SDS011;5805;51.542;7.230;2024-01-11T04:21:31;19.00;;;10.97;;
11496;SDS011;5805;51.542;7.230;2024-01-11T04:24:00;16.60;;;9.93;;
11496;SDS011;5805;51.542;7.230;2024-01-11T04:26:25;18.17;;;10.33;;
11496;SDS011;5805;51.542;7.230;2024-01-11T04:28:51;19.80;;;10.33;;
11496;SDS011;5805;51.542;7.230;2024-01-11T04:31:19;19.97;;;11.10;;
11496;SDS011;5805;51.542;7.230;2024-01-11T04:33:45;17.47;;;10.57;;
11496;SDS011;5805;51.542;7.230;2024-01-11T04:36:11;18.27;;;10.73;;
11496;SDS011;5805;51.542;7.230;2024-01-11T04:38:38;18.03;;;10.10;;
11496;SDS011;5805;51.542;7.230;2024-01-11T04:41:08;22.13;;;10.27;;
11496;SDS011;5805;51.542;7.230;2024-01-11T04:43:36;17.90;;;10.37;;
11496;SDS011;5805;51.542;7.230;2024-01-11T04:46:02;17.67;;;11.43;;
11496;SDS011;5805;51.542;7.230;2024-01-11T04:48:28;16.33;;;10.60;;
11496;SDS011;5805;51.542;7.230;2024-01-11T04:50:54;22.87;;;11.67;;
11496;SDS011;5805;51.542;7.230;2024-01-11T04:53:21;18.63;;;10.70;;
11496;SDS011;5805;51.542;7.230;2024-01-11T04:55:46;19.97;;;10.67;;
11496;SDS011;5805;51.542;7.230;2024-01-11T04:58:14;20.33;;;11.60;;
11496;SDS011;5805;51.542;7.230;2024-01-11T05:00:39;19.30;;;11.57;;
11496;SDS011;5805;51.542;7.230;2024-01-11T05:03:05;17.17;;;9.80;;
11496;SDS011;5805;51.542;7.230;2024-01-11T05:05:31;20.00;;;10.73;;
11496;SDS011;5805;51.542;7.230;2024-01-11T05:07:57;16.67;;;10.63;;
11496;SDS011;5805;51.542;7.230;2024-01-11T05:10:22;16.27;;;9.20;;
11496;SDS011;5805;51.542;7.230;2024-01-11T05:12:48;19.33;;;10.57;;
11496;SDS011;5805;51.542;7.230;2024-01-11T05:15:15;19.50;;;10.97;;
11496;SDS011;5805;51.542;7.230;2024-01-11T05:17:41;17.20;;;10.13;;
11496;SDS011;5805;51.542;7.230;2024-01-11T05:20:08;19.60;;;10.80;;
11496;SDS011;5805;51.542;7.230;2024-01-11T05:22:34;16.40;;;9.80;;
11496;SDS011;5805;51.542;7.230;2024-01-11T05:25:01;19.73;;;11.37;;
11496;SDS011;5805;51.542;7.230;2024-01-11T05:27:27;19.13;;;10.90;;
11496;SDS011;5805;51.542;7.230;2024-01-11T05:29:53;17.33;;;10.40;;
11496;SDS011;5805;51.542;7.230;2024-01-11T05:32:20;20.90;;;11.47;;
11496;SDS011;5805;51.542;7.230;2024-01-11T05:34:45;18.07;;;10.13;;
11496;SDS011;5805;51.542;7.230;2024-01-11T05:37:11;16.20;;;9.90;;
11496;SDS011;5805;51.542;7.230;2024-01-11T05:39:38;22.23;;;10.93;;
11496;SDS011;5805;51.542;7.230;2024-01-11T05:42:04;19.07;;;10.53;;
11496;SDS011;5805;51.542;7.230;2024-01-11T05:44:30;25.37;;;10.97;;
11496;SDS011;5805;51.542;7.230;2024-01-11T05:46:56;16.37;;;10.10;;
11496;SDS011;5805;51.542;7.230;2024-01-11T05:49:23;17.53;;;10.07;;
11496;SDS011;5805;51.542;7.230;2024-01-11T05:51:49;18.23;;;10.67;;
11496;SDS011;5805;51.542;7.230;2024-01-11T05:54:15;19.77;;;10.43;;
11496;SDS011;5805;51.542;7.230;2024-01-11T05:56:40;22.93;;;9.97;;
11496;SDS011;5805;51.542;7.230;2024-01-11T05:59:06;17.50;;;10.20;;
11496;SDS011;5805;51.542;7.230;2024-01-11T06:01:32;18.60;;;10.57;;
11496;SDS011;5805;51.542;7.230;2024-01-11T06:03:58;18.50;;;9.87;;
11496;SDS011;5805;51.542;7.230;2024-01-11T06:06:25;18.83;;;10.80;;
11496;SDS011;5805;51.542;7.230;2024-01-11T06:08:51;21.03;;;11.00;;
11496;SDS011;5805;51.542;7.230;2024-01-11T06:11:18;17.77;;;10.37;;
11496;SDS011;5805;51.542;7.230;2024-01-11T06:13:45;19.50;;;10.57;;
11496;SDS011;5805;51.542;7.230;2024-01-11T06:16:11;19.10;;;10.43;;
11496;SDS011;5805;51.542;7.230;2024-01-11T06:18:36;18.00;;;10.17;;
11496;SDS011;5805;51.542;7.230;2024-01-11T06:21:02;17.40;;;10.57;;
11496;SDS011;5805;51.542;7.230;2024-01-11T06:23:30;18.43;;;10.57;;
11496;SDS011;5805;51.542;7.230;2024-01-11T06:25:55;22.80;;;11.13;;
11496;SDS011;5805;51.542;7.230;2024-01-11T06:28:21;19.47;;;11.00;;
11496;SDS011;5805;51.542;7.230;2024-01-11T06:30:49;17.87;;;10.73;;
11496;SDS011;5805;51.542;7.230;2024-01-11T06:33:14;18.47;;;10.47;;
11496;SDS011;5805;51.542;7.230;2024-01-11T06:35:40;20.90;;;10.10;;
11496;SDS011;5805;51.542;7.230;2024-01-11T06:38:07;18.80;;;10.07;;
11496;SDS011;5805;51.542;7.230;2024-01-11T06:40:34;16.07;;;9.83;;
11496;SDS011;5805;51.542;7.230;2024-01-11T06:43:00;20.23;;;10.30;;
11496;SDS011;5805;51.542;7.230;2024-01-11T06:45:26;19.83;;;10.60;;
11496;SDS011;5805;51.542;7.230;2024-01-11T06:47:52;17.03;;;9.70;;
11496;SDS011;5805;51.542;7.230;2024-01-11T06:50:18;17.80;;;10.73;;
11496;SDS011;5805;51.542;7.230;2024-01-11T06:52:45;22.27;;;10.57;;
11496;SDS011;5805;51.542;7.230;2024-01-11T06:55:11;21.27;;;11.27;;
11496;SDS011;5805;51.542;7.230;2024-01-11T06:57:41;19.23;;;10.87;;
11496;SDS011;5805;51.542;7.230;2024-01-11T07:00:07;18.60;;;9.83;;
11496;SDS011;5805;51.542;7.230;2024-01-11T07:02:33;18.33;;;9.93;;
11496;SDS011;5805;51.542;7.230;2024-01-11T07:04:59;19.67;;;9.87;;
11496;SDS011;5805;51.542;7.230;2024-01-11T07:07:26;19.23;;;10.27;;
11496;SDS011;5805;51.542;7.230;2024-01-11T07:09:52;23.03;;;10.60;;
11496;SDS011;5805;51.542;7.230;2024-01-11T07:12:18;19.17;;;10.07;;
11496;SDS011;5805;51.542;7.230;2024-01-11T07:14:46;20.67;;;11.20;;
11496;SDS011;5805;51.542;7.230;2024-01-11T07:17:11;19.47;;;10.50;;
11496;SDS011;5805;51.542;7.230;2024-01-11T07:19:37;18.63;;;10.20;;
11496;SDS011;5805;51.542;7.230;2024-01-11T07:22:03;24.83;;;11.37;;
11496;SDS011;5805;51.542;7.230;2024-01-11T07:24:29;21.77;;;10.57;;
11496;SDS011;5805;51.542;7.230;2024-01-11T07:26:54;21.90;;;11.30;;
11496;SDS011;5805;51.542;7.230;2024-01-11T07:29:20;18.73;;;9.57;;
11496;SDS011;5805;51.542;7.230;2024-01-11T07:31:47;21.57;;;9.93;;
11496;SDS011;5805;51.542;7.230;2024-01-11T07:34:13;18.43;;;10.67;;
11496;SDS011;5805;51.542;7.230;2024-01-11T07:36:38;21.23;;;10.67;;
11496;SDS011;5805;51.542;7.230;2024-01-11T07:39:04;21.40;;;11.07;;
11496;SDS011;5805;51.542;7.230;2024-01-11T07:41:30;21.20;;;10.87;;
11496;SDS011;5805;51.542;7.230;2024-01-11T07:43:55;18.13;;;10.83;;
11496;SDS011;5805;51.542;7.230;2024-01-11T07:46:21;20.93;;;11.07;;
11496;SDS011;5805;51.542;7.230;2024-01-11T07:48:48;23.10;;;10.77;;
11496;SDS011;5805;51.542;7.230;2024-01-11T07:51:14;17.83;;;10.20;;
11496;SDS011;5805;51.542;7.230;2024-01-11T07:53:40;17.87;;;10.57;;
11496;SDS011;5805;51.542;7.230;2024-01-11T07:56:05;19.40;;;11.23;;
11496;SDS011;5805;51.542;7.230;2024-01-11T07:58:31;23.97;;;11.00;;
11496;SDS011;5805;51.542;7.230;2024-01-11T08:00:57;19.30;;;11.03;;
11496;SDS011;5805;51.542;7.230;2024-01-11T08:03:22;18.97;;;11.07;;
11496;SDS011;5805;51.542;7.230;2024-01-11T08:05:50;21.17;;;11.10;;
11496;SDS011;5805;51.542;7.230;2024-01-11T08:08:16;22.30;;;11.63;;
11496;SDS011;5805;51.542;7.230;2024-01-11T08:10:42;19.27;;;10.30;;
11496;SDS011;5805;51.542;7.230;2024-01-11T08:13:07;18.20;;;10.07;;
11496;SDS011;5805;51.542;7.230;2024-01-11T08:15:33;21.27;;;10.87;;
11496;SDS011;5805;51.542;7.230;2024-01-11T08:17:59;17.40;;;10.57;;
11496;SDS011;5805;51.542;7.230;2024-01-11T08:20:24;19.80;;;11.90;;
11496;SDS011;5805;51.542;7.230;2024-01-11T08:22:51;26.80;;;12.47;;
11496;SDS011;5805;51.542;7.230;2024-01-11T08:25:17;20.30;;;11.83;;
11496;SDS011;5805;51.542;7.230;2024-01-11T08:27:43;18.47;;;11.53;;
11496;SDS011;5805;51.542;7.230;2024-01-11T08:30:09;23.43;;;12.67;;
11496;SDS011;5805;51.542;7.230;2024-01-11T08:32:35;18.30;;;10.60;;
11496;SDS011;5805;51.542;7.230;2024-01-11T08:35:00;21.80;;;11.53;;
11496;SDS011;5805;51.542;7.230;2024-01-11T08:37:26;21.80;;;11.67;;
11496;SDS011;5805;51.542;7.230;2024-01-11T08:39:53;23.57;;;12.33;;
11496;SDS011;5805;51.542;7.230;2024-01-11T08:42:19;22.17;;;12.23;;
11496;SDS011;5805;51.542;7.230;2024-01-11T08:44:44;21.23;;;11.43;;
11496;SDS011;5805;51.542;7.230;2024-01-11T08:47:10;19.43;;;11.27;;
11496;SDS011;5805;51.542;7.230;2024-01-11T08:49:36;20.10;;;11.70;;
11496;SDS011;5805;51.542;7.230;2024-01-11T08:52:03;17.30;;;9.63;;
11496;SDS011;5805;51.542;7.230;2024-01-11T08:54:29;19.10;;;10.73;;
11496;SDS011;5805;51.542;7.230;2024-01-11T08:56:56;20.23;;;11.87;;
11496;SDS011;5805;51.542;7.230;2024-01-11T08:59:22;23.67;;;10.63;;
11496;SDS011;5805;51.542;7.230;2024-01-11T09:01:47;20.03;;;11.00;;
11496;SDS011;5805;51.542;7.230;2024-01-11T09:04:13;20.20;;;11.40;;
11496;SDS011;5805;51.542;7.230;2024-01-11T09:06:38;20.50;;;10.20;;
11496;SDS011;5805;51.542;7.230;2024-01-11T09:09:04;20.57;;;10.63;;
11496;SDS011;5805;51.542;7.230;2024-01-11T09:11:30;21.23;;;11.80;;
11496;SDS011;5805;51.542;7.230;2024-01-11T09:13:57;18.23;;;10.60;;
11496;SDS011;5805;51.542;7.230;2024-01-11T09:16:23;18.67;;;10.97;;
11496;SDS011;5805;51.542;7.230;2024-01-11T09:18:48;21.47;;;11.53;;
11496;SDS011;5805;51.542;7.230;2024-01-11T09:21:14;25.80;;;12.40;;
11496;SDS011;5805;51.542;7.230;2024-01-11T09:23:40;19.13;;;11.33;;
11496;SDS011;5805;51.542;7.230;2024-01-11T09:26:06;28.87;;;11.93;;
11496;SDS011;5805;51.542;7.230;2024-01-11T09:28:31;23.40;;;12.37;;
11496;SDS011;5805;51.542;7.230;2024-01-11T09:30:58;21.00;;;11.83;;
11496;SDS011;5805;51.542;7.230;2024-01-11T09:33:24;19.10;;;11.10;;
11496;SDS011;5805;51.542;7.230;2024-01-11T09:35:50;23.03;;;11.97;;
11496;SDS011;5805;51.542;7.230;2024-01-11T09:38:15;20.43;;;11.33;;
11496;SDS011;5805;51.542;7.230;2024-01-11T09:40:41;22.57;;;12.37;;
11496;SDS011;5805;51.542;7.230;2024-01-11T09:43:07;22.40;;;12.23;;
11496;SDS011;5805;51.542;7.230;2024-01-11T09:45:35;19.30;;;12.20;;
11496;SDS011;5805;51.542;7.230;2024-01-11T09:48:04;23.20;;;12.63;;
11496;SDS011;5805;51.542;7.230;2024-01-11T09:50:31;24.53;;;11.87;;
11496;SDS011;5805;51.542;7.230;2024-01-11T09:52:57;26.13;;;12.53;;
11496;SDS011;5805;51.542;7.230;2024-01-11T09:55:26;23.07;;;13.23;;
11496;SDS011;5805;51.542;7.230;2024-01-11T09:57:52;20.93;;;12.50;;
11496;SDS011;5805;51.542;7.230;2024-01-11T10:00:22;18.87;;;11.23;;
11496;SDS011;5805;51.542;7.230;2024-01-11T10:02:48;19.70;;;11.30;;
11496;SDS011;5805;51.542;7.230;2024-01-11T10:05:15;18.00;;;11.60;;
11496;SDS011;5805;51.542;7.230;2024-01-11T10:07:42;21.60;;;11.77;;
11496;SDS011;5805;51.542;7.230;2024-01-11T10:10:08;21.43;;;11.63;;
11496;SDS011;5805;51.542;7.230;2024-01-11T10:12:34;19.80;;;10.63;;
11496;SDS011;5805;51.542;7.230;2024-01-11T10:15:04;19.73;;;11.93;;
11496;SDS011;5805;51.542;7.230;2024-01-11T10:17:31;19.43;;;12.20;;
11496;SDS011;5805;51.542;7.230;2024-01-11T10:19:57;17.50;;;10.47;;
11496;SDS011;5805;51.542;7.230;2024-01-11T10:22:24;17.27;;;10.80;;
11496;SDS011;5805;51.542;7.230;2024-01-11T10:24:49;18.60;;;10.90;;
11496;SDS011;5805;51.542;7.230;2024-01-11T10:27:15;24.30;;;12.03;;
11496;SDS011;5805;51.542;7.230;2024-01-11T10:29:41;20.30;;;11.17;;
11496;SDS011;5805;51.542;7.230;2024-01-11T10:32:06;18.27;;;11.23;;
11496;SDS011;5805;51.542;7.230;2024-01-11T10:34:32;18.70;;;11.63;;
11496;SDS011;5805;51.542;7.230;2024-01-11T10:36:58;18.40;;;10.10;;
11496;SDS011;5805;51.542;7.230;2024-01-11T10:39:26;20.87;;;10.80;;
11496;SDS011;5805;51.542;7.230;2024-01-11T10:41:58;23.83;;;12.60;;
11496;SDS011;5805;51.542;7.230;2024-01-11T10:44:29;20.70;;;11.20;;
11496;SDS011;5805;51.542;7.230;2024-01-11T10:46:59;18.33;;;10.80;;
11496;SDS011;5805;51.542;7.230;2024-01-11T10:49:27;18.00;;;10.63;;
11496;SDS011;5805;51.542;7.230;2024-01-11T10:51:56;21.67;;;11.53;;
11496;SDS011;5805;51.542;7.230;2024-01-11T10:54:27;19.87;;;12.10;;
11496;SDS011;5805;51.542;7.230;2024-01-11T10:56:53;19.37;;;10.17;;
11496;SDS011;5805;51.542;7.230;2024-01-11T10:59:20;24.03;;;11.23;;
11496;SDS011;5805;51.542;7.230;2024-01-11T11:01:47;19.63;;;12.37;;
11496;SDS011;5805;51.542;7.230;2024-01-11T11:04:13;20.83;;;12.17;;
11496;SDS011;5805;51.542;7.230;2024-01-11T11:06:40;19.13;;;10.80;;
11496;SDS011;5805;51.542;7.230;2024-01-11T11:09:07;20.57;;;11.83;;
11496;SDS011;5805;51.542;7.230;2024-01-11T11:11:40;17.60;;;11.27;;
11496;SDS011;5805;51.542;7.230;2024-01-11T11:14:06;24.07;;;11.97;;
11496;SDS011;5805;51.542;7.230;2024-01-11T11:16:32;21.70;;;11.80;;
11496;SDS011;5805;51.542;7.230;2024-01-11T11:18:58;21.17;;;12.20;;
11496;SDS011;5805;51.542;7.230;2024-01-11T11:21:23;17.63;;;10.63;;
11496;SDS011;5805;51.542;7.230;2024-01-11T11:23:49;19.97;;;11.77;;
11496;SDS011;5805;51.542;7.230;2024-01-11T11:26:15;20.30;;;11.77;;
11496;SDS011;5805;51.542;7.230;2024-01-11T11:28:43;19.47;;;11.20;;
11496;SDS011;5805;51.542;7.230;2024-01-11T11:31:10;17.53;;;11.30;;
11496;SDS011;5805;51.542;7.230;2024-01-11T11:33:36;18.63;;;9.60;;
11496;SDS011;5805;51.542;7.230;2024-01-11T11:36:02;22.83;;;12.23;;
11496;SDS011;5805;51.542;7.230;2024-01-11T11:38:29;20.27;;;11.47;;
11496;SDS011;5805;51.542;7.230;2024-01-11T11:40:56;22.03;;;10.83;;
11496;SDS011;5805;51.542;7.230;2024-01-11T11:43:22;23.83;;;11.33;;
11496;SDS011;5805;51.542;7.230;2024-01-11T11:45:50;20.33;;;11.53;;
11496;SDS011;5805;51.542;7.230;2024-01-11T11:51:14;20.50;;;11.17;;
11496;SDS011;5805;51.542;7.230;2024-01-11T11:53:42;17.30;;;10.67;;
11496;SDS011;5805;51.542;7.230;2024-01-11T11:56:10;21.23;;;11.83;;
11496;SDS011;5805;51.542;7.230;2024-01-11T11:58:36;20.37;;;11.57;;
11496;SDS011;5805;51.542;7.230;2024-01-11T12:01:03;19.53;;;12.47;;
11496;SDS011;5805;51.542;7.230;2024-01-11T12:03:30;20.80;;;11.17;;
11496;SDS011;5805;51.542;7.230;2024-01-11T12:05:56;20.63;;;11.43;;
11496;SDS011;5805;51.542;7.230;2024-01-11T12:08:25;16.67;;;9.50;;
11496;SDS011;5805;51.542;7.230;2024-01-11T12:10:51;17.67;;;9.53;;
11496;SDS011;5805;51.542;7.230;2024-01-11T12:13:17;19.50;;;10.63;;
11496;SDS011;5805;51.542;7.230;2024-01-11T12:15:43;17.97;;;11.20;;
11496;SDS011;5805;51.542;7.230;2024-01-11T12:18:10;19.50;;;10.87;;
11496;SDS011;5805;51.542;7.230;2024-01-11T12:20:36;18.43;;;11.23;;
11496;SDS011;5805;51.542;7.230;2024-01-11T12:23:02;19.20;;;10.37;;
11496;SDS011;5805;51.542;7.230;2024-01-11T12:25:28;21.17;;;11.10;;
11496;SDS011;5805;51.542;7.230;2024-01-11T12:27:54;16.17;;;10.23;;
11496;SDS011;5805;51.542;7.230;2024-01-11T12:30:21;16.77;;;10.10;;
11496;SDS011;5805;51.542;7.230;2024-01-11T12:32:47;15.93;;;9.30;;
11496;SDS011;5805;51.542;7.230;2024-01-11T12:35:15;15.77;;;9.17;;
11496;SDS011;5805;51.542;7.230;2024-01-11T12:37:41;16.40;;;9.93;;
11496;SDS011;5805;51.542;7.230;2024-01-11T12:40:19;14.10;;;9.60;;
11496;SDS011;5805;51.542;7.230;2024-01-11T12:42:45;17.07;;;9.43;;
11496;SDS011;5805;51.542;7.230;2024-01-11T12:45:10;16.57;;;9.00;;
11496;SDS011;5805;51.542;7.230;2024-01-11T12:47:37;17.60;;;10.10;;
11496;SDS011;5805;51.542;7.230;2024-01-11T12:50:03;17.13;;;8.80;;
11496;SDS011;5805;51.542;7.230;2024-01-11T12:52:31;15.20;;;8.27;;
11496;SDS011;5805;51.542;7.230;2024-01-11T12:54:57;15.37;;;8.07;;
11496;SDS011;5805;51.542;7.230;2024-01-11T12:57:23;13.77;;;7.70;;
11496;SDS011;5805;51.542;7.230;2024-01-11T12:59:48;11.83;;;7.70;;
11496;SDS011;5805;51.542;7.230;2024-01-11T13:02:14;13.10;;;7.57;;
11496;SDS011;5805;51.542;7.230;2024-01-11T13:04:42;13.20;;;8.23;;
11496;SDS011;5805;51.542;7.230;2024-01-11T13:07:08;12.93;;;7.87;;
11496;SDS011;5805;51.542;7.230;2024-01-11T13:09:35;15.33;;;8.27;;
11496;SDS011;5805;51.542;7.230;2024-01-11T13:12:01;15.60;;;8.20;;
11496;SDS011;5805;51.542;7.230;2024-01-11T13:14:27;17.90;;;8.73;;
11496;SDS011;5805;51.542;7.230;2024-01-11T13:16:52;13.97;;;8.43;;
11496;SDS011;5805;51.542;7.230;2024-01-11T13:19:18;11.87;;;7.63;;
11496;SDS011;5805;51.542;7.230;2024-01-11T13:21:44;13.03;;;8.30;;
11496;SDS011;5805;51.542;7.230;2024-01-11T13:24:09;13.37;;;8.37;;
11496;SDS011;5805;51.542;7.230;2024-01-11T13:26:36;13.17;;;8.47;;
11496;SDS011;5805;51.542;7.230;2024-01-11T13:29:02;16.43;;;8.07;;
11496;SDS011;5805;51.542;7.230;2024-01-11T13:31:28;14.13;;;8.37;;
11496;SDS011;5805;51.542;7.230;2024-01-11T13:33:53;14.77;;;8.37;;
11496;SDS011;5805;51.542;7.230;2024-01-11T13:36:19;13.57;;;8.27;;
11496;SDS011;5805;51.542;7.230;2024-01-11T13:38:45;14.67;;;8.17;;
11496;SDS011;5805;51.542;7.230;2024-01-11T13:41:11;13.17;;;7.97;;
11496;SDS011;5805;51.542;7.230;2024-01-11T13:43:38;11.27;;;5.63;;
11496;SDS011;5805;51.542;7.230;2024-01-11T13:46:03;13.07;;;7.77;;
11496;SDS011;5805;51.542;7.230;2024-01-11T13:48:29;12.87;;;8.00;;
11496;SDS011;5805;51.542;7.230;2024-01-11T13:50:55;12.50;;;7.80;;
11496;SDS011;5805;51.542;7.230;2024-01-11T13:53:21;15.07;;;8.60;;
11496;SDS011;5805;51.542;7.230;2024-01-11T13:55:46;12.53;;;7.53;;
11496;SDS011;5805;51.542;7.230;2024-01-11T13:58:12;11.47;;;6.63;;
11496;SDS011;5805;51.542;7.230;2024-01-11T14:00:39;11.83;;;7.43;;
11496;SDS011;5805;51.542;7.230;2024-01-11T14:03:05;10.97;;;6.90;;
11496;SDS011;5805;51.542;7.230;2024-01-11T14:05:31;12.27;;;6.87;;
11496;SDS011;5805;51.542;7.230;2024-01-11T14:07:56;12.77;;;7.27;;
11496;SDS011;5805;51.542;7.230;2024-01-11T14:10:22;14.10;;;8.20;;
11496;SDS011;5805;51.542;7.230;2024-01-11T14:12:48;13.73;;;7.60;;
11496;SDS011;5805;51.542;7.230;2024-01-11T14:15:14;13.20;;;7.63;;
11496;SDS011;5805;51.542;7.230;2024-01-11T14:17:41;11.30;;;7.23;;
11496;SDS011;5805;51.542;7.230;2024-01-11T14:20:07;12.00;;;6.93;;
11496;SDS011;5805;51.542;7.230;2024-01-11T14:22:33;10.20;;;7.27;;
11496;SDS011;5805;51.542;7.230;2024-01-11T14:24:59;10.90;;;7.27;;
11496;SDS011;5805;51.542;7.230;2024-01-11T14:27:25;10.67;;;6.97;;
11496;SDS011;5805;51.542;7.230;2024-01-11T14:29:50;11.70;;;6.87;;
11496;SDS011;5805;51.542;7.230;2024-01-11T14:32:16;12.77;;;7.37;;
11496;SDS011;5805;51.542;7.230;2024-01-11T14:34:44;15.27;;;8.00;;